BLSO2: BLACKWELL

Data processed at Sat Apr 22 2017 22:43


All information presented herein is the property of the government of the United States of America and may be revised or deleted at any time without prior notice.
Dissemination of this information without the expressed written consent of the Public Affairs Office, Tulsa District U.S. Army Corps of Engineers is strictly prohibited.
These data are gathered electronically and, as presented, have not undergone any form of quality control. These data are not guaranteed to be valid or correct.
Go to home page.
Go to station list.
Go to station map.


Previous Day
Next Day
Current Day


    
SHEF ID:       BLKO2     Chikaskia River near Blackwell,
STATION TYPE:  

               PRECIP     STAGE  STAGE(2)  RIV-FLOW  BAT-LOAD
                   in        ft        ft       cfs      volt
              Ccp-Rev   Ccp-Rev   Ccp-Rev   Ccp-Rev   Ccp-Rev
(US/Central)
04/22 00:00      0.00     13.22     13.12      4810     12.57
04/22 01:00      0.00     13.56     13.51      4981     12.49
04/22 02:00      0.00     13.90     13.84      5153     12.49
04/22 03:00      0.00     14.14     14.15      5280     12.49
04/22 04:00      0.00     14.43     14.45      5441     12.41
04/22 05:00      0.00     14.65     14.68      5564     12.41
04/22 06:00      0.00     14.85     14.85      5677     12.41
04/22 07:00      0.00     14.98     15.01      5750     12.41
04/22 08:00      0.00     15.06     15.11      5798     12.41
04/22 09:00      0.00     15.15     15.16      5853     13.13
04/22 10:00      0.00     15.16     15.22      5859     13.37
04/22 11:00      0.00     15.14     15.22      5847     13.68
04/22 12:00      0.00     15.15     15.20      5853     13.76
04/22 13:00      0.00     15.09     15.17      5817     13.92
04/22 14:00      0.00     14.98     15.08      5750     13.68
04/22 15:00      0.00     14.87     14.96      5688     13.68
04/22 16:00      0.00     14.67     14.79      5575     13.68
04/22 17:00      0.00     14.47     14.60      5463     13.68
04/22 18:00      0.00     14.21     14.38      5319     13.76
04/22 19:00      0.00     13.96     14.12      5183     13.68
04/22 20:00      0.00     13.69     13.85      5046     13.29
04/22 21:00      ----      ----      ----      ----      ----
04/22 22:00      ----      ----      ----      ----      ----
04/22 23:00      ----      ----      ----      ----      ----